Hovedside
METAR-TAF:

METAR-TAF

Lufthavner :

Sir Seewoosagur Ramgoolam internasjonale lufthavn

Mauritius, Mauritius

breddegrad: 20-26S, lengdegrad: 057-40E, høyde over havet: 55 m

Gjeldene værobservasjon

Denne rapporten ble laget for 55 minutter siden, klokken 03:00 UTC
Vind 1 kt fra skiftende retning
Temperatur 24°C
Luftfuktighet 94%
Trykk 1012 hPa
Sikt 10 km eller mer
Spredte skyer i en høyde av 1600 ft

METAR: FIMP 290300Z VRB01KT 9999 SCT016 24/23 Q1012

Tid: 07:55 (03:55 UTC)

Varsel

Denne rapporten ble laget for 4 timer og 40 minutter siden, klokken 23:15 UTC
Varsel gyldig fra 29. klokken 00 UTC til 30. klokken 06 UTC
Vind 3 kt fra skiftende retning
Sikt 10 km eller mer
Spredte skyer i en høyde av 1700 ft
Blir
fra 29. klokken 04 UTC til 29. klokken 06 UTC
Vind 10 kt fra Sørøst

TAF: FIMP 282315Z 2900/3006 VRB03KT 9999 SCT017 BECMG 2904/2906 14010KT

Værobservasjoner og værvarsel for over 4000 flyplasser (METAR- og TAF-rapporter).

Tilgjengelige stasjoner er representert av de røde og gule prikkene på kartet.

Hold musepekeren over prikken for å se navnet på stasjonen.

Klikk så for å se værobservasjoner og -varsler.

For å forandre kartet kan du klikke på den grønne knappen med svart kryss for å zoome inn, på den grønne knappen med strek for å zoome ut, eller på de grønne pilene for å se tilstøtende kart.


METAR-TAF: